Accueil
METAR-TAF:

METAR-TAF

Aéroports :

Hanovre, Allemagne

Aéroport international de Hanovre Langenhagen

latitude: 52-28N, longitude: 009-41E, altitude: 56 m

Observation

Le bulletin a été fait il y a 43 minutes, à 08:20 UTC
Vent 7 kt de ouest, variant entre sud-ouest et nord-ouest
Température 7°C
Humidité 70%
Pression 1015 hPa
Visibilité 10 km ou plus
Nuages épars à une hauteur de 2200 ft

METAR: EDDV 270820Z 26007KT 220V310 9999 SCT022 07/02 Q1015 NOSIG

Heure: 11:03 (09:03 UTC)

Prévision

Le bulletin a été fait il y a 4 heures et 3 minutes, à 05:00 UTC
Prévision valable du 27 à 06 UTC au 28 à 06 UTC
Vent 3 kt de sud-ouest
Visibilité 10 km ou plus
Quelques nuages à une hauteur de 4000 ft
Evoluant progressivement
du 27 à 06 UTC au 27 à 09 UTC
Vent 8 kt de ouest
Evoluant progressivement
du 27 à 17 UTC au 27 à 19 UTC
Vent 3 kt de sud/sud-ouest

TAF: EDDV 270500Z 2706/2806 23003KT 9999 FEW040 BECMG 2706/2709 27008KT BECMG 2717/2719 20003KT

Observations et prévisions météorologiques de plus de 4000 aéroports (messages METAR et TAF).

Les stations disponibles sont représentées par des disques jaunes et rouges sur la carte.

Passer la souris dessus pour voir le nom de la station.

Cliquer dessus pour voir les observations et prévisions météorologiques.

Pour changer de carte: cliquez sur les boutons verts avec une croix noire pour zoomer, sur le bouton vert avec un tiret pour effectuer un zoom arrière, ou sur les flèches vertes pour les cartes adjacentes.


METAR-TAF: